sensor_id;sensor_type;location;lat;lon;timestamp;P1;durP1;ratioP1;P2;durP2;ratioP2
66175;SDS011;52977;44.816;20.538;2023-07-13T00:01:51;16.90;;;5.03;;
66175;SDS011;52977;44.816;20.538;2023-07-13T00:04:18;9.80;;;5.15;;
66175;SDS011;52977;44.816;20.538;2023-07-13T00:06:46;11.20;;;4.70;;
66175;SDS011;52977;44.816;20.538;2023-07-13T00:09:13;13.48;;;5.35;;
66175;SDS011;52977;44.816;20.538;2023-07-13T00:11:41;12.32;;;4.93;;
66175;SDS011;52977;44.816;20.538;2023-07-13T00:14:07;11.13;;;4.90;;
66175;SDS011;52977;44.816;20.538;2023-07-13T00:16:34;8.80;;;4.78;;
66175;SDS011;52977;44.816;20.538;2023-07-13T00:19:01;10.40;;;5.10;;
66175;SDS011;52977;44.816;20.538;2023-07-13T00:21:28;9.45;;;4.70;;
66175;SDS011;52977;44.816;20.538;2023-07-13T00:23:54;13.35;;;4.88;;
66175;SDS011;52977;44.816;20.538;2023-07-13T00:26:20;11.05;;;5.05;;
66175;SDS011;52977;44.816;20.538;2023-07-13T00:28:47;11.23;;;4.85;;
66175;SDS011;52977;44.816;20.538;2023-07-13T00:31:13;8.55;;;4.57;;
66175;SDS011;52977;44.816;20.538;2023-07-13T00:36:09;10.45;;;5.00;;
66175;SDS011;52977;44.816;20.538;2023-07-13T00:38:35;11.02;;;5.05;;
66175;SDS011;52977;44.816;20.538;2023-07-13T00:41:03;11.35;;;4.90;;
66175;SDS011;52977;44.816;20.538;2023-07-13T00:43:30;12.18;;;5.55;;
66175;SDS011;52977;44.816;20.538;2023-07-13T00:48:59;10.02;;;4.80;;
66175;SDS011;52977;44.816;20.538;2023-07-13T00:51:30;11.55;;;4.70;;
66175;SDS011;52977;44.816;20.538;2023-07-13T00:54:07;13.57;;;5.45;;
66175;SDS011;52977;44.816;20.538;2023-07-13T00:56:37;10.50;;;5.00;;
66175;SDS011;52977;44.816;20.538;2023-07-13T00:59:05;12.68;;;5.30;;
66175;SDS011;52977;44.816;20.538;2023-07-13T01:01:34;9.23;;;5.18;;
66175;SDS011;52977;44.816;20.538;2023-07-13T01:04:02;10.15;;;5.30;;
66175;SDS011;52977;44.816;20.538;2023-07-13T01:06:29;9.75;;;5.22;;
66175;SDS011;52977;44.816;20.538;2023-07-13T01:08:58;11.48;;;5.10;;
66175;SDS011;52977;44.816;20.538;2023-07-13T01:11:26;13.98;;;4.55;;
66175;SDS011;52977;44.816;20.538;2023-07-13T01:13:52;14.57;;;5.30;;
66175;SDS011;52977;44.816;20.538;2023-07-13T01:16:26;12.25;;;5.70;;
66175;SDS011;52977;44.816;20.538;2023-07-13T01:18:55;9.80;;;5.22;;
66175;SDS011;52977;44.816;20.538;2023-07-13T01:21:24;10.07;;;5.40;;
66175;SDS011;52977;44.816;20.538;2023-07-13T01:23:51;10.02;;;5.45;;
66175;SDS011;52977;44.816;20.538;2023-07-13T01:26:17;13.13;;;5.50;;
66175;SDS011;52977;44.816;20.538;2023-07-13T01:28:43;11.93;;;5.03;;
66175;SDS011;52977;44.816;20.538;2023-07-13T01:31:09;10.13;;;5.65;;
66175;SDS011;52977;44.816;20.538;2023-07-13T01:33:36;11.30;;;5.55;;
66175;SDS011;52977;44.816;20.538;2023-07-13T01:36:05;13.85;;;5.57;;
66175;SDS011;52977;44.816;20.538;2023-07-13T01:38:36;11.43;;;5.63;;
66175;SDS011;52977;44.816;20.538;2023-07-13T01:41:02;10.60;;;5.90;;
66175;SDS011;52977;44.816;20.538;2023-07-13T01:43:29;11.48;;;6.18;;
66175;SDS011;52977;44.816;20.538;2023-07-13T01:45:55;13.80;;;6.47;;
66175;SDS011;52977;44.816;20.538;2023-07-13T01:48:21;13.70;;;6.05;;
66175;SDS011;52977;44.816;20.538;2023-07-13T01:50:47;11.93;;;6.38;;
66175;SDS011;52977;44.816;20.538;2023-07-13T01:53:13;16.20;;;6.60;;
66175;SDS011;52977;44.816;20.538;2023-07-13T01:55:39;16.08;;;7.03;;
66175;SDS011;52977;44.816;20.538;2023-07-13T01:58:05;13.30;;;6.13;;
66175;SDS011;52977;44.816;20.538;2023-07-13T02:00:31;13.90;;;6.40;;
66175;SDS011;52977;44.816;20.538;2023-07-13T02:02:58;17.80;;;6.32;;
66175;SDS011;52977;44.816;20.538;2023-07-13T02:05:24;13.10;;;5.70;;
66175;SDS011;52977;44.816;20.538;2023-07-13T02:07:49;13.73;;;6.40;;
66175;SDS011;52977;44.816;20.538;2023-07-13T02:10:16;12.30;;;6.30;;
66175;SDS011;52977;44.816;20.538;2023-07-13T02:12:42;14.20;;;6.18;;
66175;SDS011;52977;44.816;20.538;2023-07-13T02:15:09;15.95;;;6.30;;
66175;SDS011;52977;44.816;20.538;2023-07-13T02:17:35;13.80;;;5.88;;
66175;SDS011;52977;44.816;20.538;2023-07-13T02:20:02;11.55;;;6.32;;
66175;SDS011;52977;44.816;20.538;2023-07-13T02:22:30;13.35;;;5.90;;
66175;SDS011;52977;44.816;20.538;2023-07-13T02:24:56;14.88;;;6.80;;
66175;SDS011;52977;44.816;20.538;2023-07-13T02:27:22;13.25;;;6.75;;
66175;SDS011;52977;44.816;20.538;2023-07-13T02:29:49;17.08;;;6.10;;
66175;SDS011;52977;44.816;20.538;2023-07-13T02:34:44;13.90;;;6.53;;
66175;SDS011;52977;44.816;20.538;2023-07-13T02:37:10;17.17;;;5.97;;
66175;SDS011;52977;44.816;20.538;2023-07-13T02:39:37;12.45;;;6.50;;
66175;SDS011;52977;44.816;20.538;2023-07-13T02:42:03;12.27;;;6.07;;
66175;SDS011;52977;44.816;20.538;2023-07-13T02:44:30;15.38;;;6.97;;
66175;SDS011;52977;44.816;20.538;2023-07-13T02:46:56;12.23;;;5.85;;
66175;SDS011;52977;44.816;20.538;2023-07-13T02:49:22;10.35;;;5.82;;
66175;SDS011;52977;44.816;20.538;2023-07-13T02:51:48;12.50;;;5.95;;
66175;SDS011;52977;44.816;20.538;2023-07-13T02:54:15;12.27;;;5.25;;
66175;SDS011;52977;44.816;20.538;2023-07-13T02:56:41;10.13;;;5.18;;
66175;SDS011;52977;44.816;20.538;2023-07-13T02:59:09;9.32;;;5.18;;
66175;SDS011;52977;44.816;20.538;2023-07-13T03:01:36;12.80;;;5.30;;
66175;SDS011;52977;44.816;20.538;2023-07-13T03:04:02;10.63;;;5.55;;
66175;SDS011;52977;44.816;20.538;2023-07-13T03:06:32;12.27;;;5.45;;
66175;SDS011;52977;44.816;20.538;2023-07-13T03:08:59;11.48;;;5.63;;
66175;SDS011;52977;44.816;20.538;2023-07-13T03:11:28;11.13;;;5.88;;
66175;SDS011;52977;44.816;20.538;2023-07-13T03:14:13;10.45;;;5.40;;
66175;SDS011;52977;44.816;20.538;2023-07-13T03:16:39;13.85;;;4.93;;
66175;SDS011;52977;44.816;20.538;2023-07-13T03:19:06;11.10;;;4.95;;
66175;SDS011;52977;44.816;20.538;2023-07-13T03:21:31;10.60;;;5.20;;
66175;SDS011;52977;44.816;20.538;2023-07-13T03:23:57;10.90;;;5.35;;
66175;SDS011;52977;44.816;20.538;2023-07-13T03:26:24;12.32;;;5.80;;
66175;SDS011;52977;44.816;20.538;2023-07-13T03:28:50;13.20;;;5.70;;
66175;SDS011;52977;44.816;20.538;2023-07-13T03:31:24;11.10;;;5.07;;
66175;SDS011;52977;44.816;20.538;2023-07-13T03:33:54;11.35;;;5.57;;
66175;SDS011;52977;44.816;20.538;2023-07-13T03:36:23;13.20;;;5.65;;
66175;SDS011;52977;44.816;20.538;2023-07-13T03:38:54;12.32;;;5.75;;
66175;SDS011;52977;44.816;20.538;2023-07-13T03:41:25;11.13;;;5.85;;
66175;SDS011;52977;44.816;20.538;2023-07-13T03:43:53;12.52;;;5.75;;
66175;SDS011;52977;44.816;20.538;2023-07-13T03:46:21;10.45;;;6.05;;
66175;SDS011;52977;44.816;20.538;2023-07-13T03:48:46;16.30;;;5.90;;
66175;SDS011;52977;44.816;20.538;2023-07-13T03:51:13;11.10;;;5.18;;
66175;SDS011;52977;44.816;20.538;2023-07-13T03:53:42;12.80;;;6.05;;
66175;SDS011;52977;44.816;20.538;2023-07-13T03:56:11;11.13;;;5.70;;
66175;SDS011;52977;44.816;20.538;2023-07-13T03:58:38;14.70;;;5.80;;
66175;SDS011;52977;44.816;20.538;2023-07-13T04:01:14;9.80;;;5.95;;
66175;SDS011;52977;44.816;20.538;2023-07-13T04:03:42;11.65;;;5.10;;
66175;SDS011;52977;44.816;20.538;2023-07-13T04:06:11;10.85;;;5.40;;
66175;SDS011;52977;44.816;20.538;2023-07-13T04:08:40;12.18;;;5.43;;
66175;SDS011;52977;44.816;20.538;2023-07-13T04:11:06;10.68;;;5.28;;
66175;SDS011;52977;44.816;20.538;2023-07-13T04:13:32;9.68;;;5.80;;
66175;SDS011;52977;44.816;20.538;2023-07-13T04:15:58;9.63;;;4.97;;
66175;SDS011;52977;44.816;20.538;2023-07-13T04:18:24;18.13;;;5.88;;
66175;SDS011;52977;44.816;20.538;2023-07-13T04:20:50;10.93;;;5.25;;
66175;SDS011;52977;44.816;20.538;2023-07-13T04:23:17;9.05;;;5.43;;
66175;SDS011;52977;44.816;20.538;2023-07-13T04:25:47;7.65;;;4.97;;
66175;SDS011;52977;44.816;20.538;2023-07-13T04:28:15;11.10;;;4.90;;
66175;SDS011;52977;44.816;20.538;2023-07-13T04:30:43;9.70;;;4.53;;
66175;SDS011;52977;44.816;20.538;2023-07-13T04:33:09;11.20;;;5.35;;
66175;SDS011;52977;44.816;20.538;2023-07-13T04:35:36;11.48;;;5.35;;
66175;SDS011;52977;44.816;20.538;2023-07-13T04:38:03;11.23;;;5.03;;
66175;SDS011;52977;44.816;20.538;2023-07-13T04:40:29;11.38;;;5.32;;
66175;SDS011;52977;44.816;20.538;2023-07-13T04:42:56;9.32;;;5.20;;
66175;SDS011;52977;44.816;20.538;2023-07-13T04:45:22;11.35;;;4.80;;
66175;SDS011;52977;44.816;20.538;2023-07-13T04:47:51;11.55;;;6.13;;
66175;SDS011;52977;44.816;20.538;2023-07-13T04:50:17;11.25;;;6.80;;
66175;SDS011;52977;44.816;20.538;2023-07-13T04:52:49;15.88;;;6.93;;
66175;SDS011;52977;44.816;20.538;2023-07-13T04:55:16;11.40;;;6.05;;
66175;SDS011;52977;44.816;20.538;2023-07-13T04:57:43;10.73;;;5.43;;
66175;SDS011;52977;44.816;20.538;2023-07-13T05:00:09;11.90;;;5.30;;
66175;SDS011;52977;44.816;20.538;2023-07-13T05:02:37;11.18;;;5.53;;
66175;SDS011;52977;44.816;20.538;2023-07-13T05:05:04;12.80;;;5.30;;
66175;SDS011;52977;44.816;20.538;2023-07-13T05:07:30;7.40;;;4.53;;
66175;SDS011;52977;44.816;20.538;2023-07-13T05:09:58;10.70;;;5.43;;
66175;SDS011;52977;44.816;20.538;2023-07-13T05:12:25;10.05;;;5.55;;
66175;SDS011;52977;44.816;20.538;2023-07-13T05:14:52;11.27;;;6.30;;
66175;SDS011;52977;44.816;20.538;2023-07-13T05:17:18;14.30;;;5.97;;
66175;SDS011;52977;44.816;20.538;2023-07-13T05:19:44;13.48;;;6.82;;
66175;SDS011;52977;44.816;20.538;2023-07-13T05:22:09;13.02;;;7.45;;
66175;SDS011;52977;44.816;20.538;2023-07-13T05:24:35;12.70;;;7.07;;
66175;SDS011;52977;44.816;20.538;2023-07-13T05:27:01;13.20;;;6.78;;
66175;SDS011;52977;44.816;20.538;2023-07-13T05:29:27;11.75;;;6.25;;
66175;SDS011;52977;44.816;20.538;2023-07-13T05:31:54;10.32;;;5.72;;
66175;SDS011;52977;44.816;20.538;2023-07-13T05:34:21;9.80;;;5.45;;
66175;SDS011;52977;44.816;20.538;2023-07-13T05:36:47;10.50;;;5.03;;
66175;SDS011;52977;44.816;20.538;2023-07-13T05:39:13;11.10;;;5.35;;
66175;SDS011;52977;44.816;20.538;2023-07-13T05:41:40;11.95;;;5.90;;
66175;SDS011;52977;44.816;20.538;2023-07-13T05:44:05;11.52;;;6.55;;
66175;SDS011;52977;44.816;20.538;2023-07-13T05:46:31;12.75;;;6.00;;
66175;SDS011;52977;44.816;20.538;2023-07-13T05:48:57;18.27;;;7.20;;
66175;SDS011;52977;44.816;20.538;2023-07-13T05:51:22;17.48;;;7.90;;
66175;SDS011;52977;44.816;20.538;2023-07-13T05:53:48;23.48;;;8.75;;
66175;SDS011;52977;44.816;20.538;2023-07-13T05:56:13;16.63;;;8.82;;
66175;SDS011;52977;44.816;20.538;2023-07-13T05:58:39;19.45;;;10.00;;
66175;SDS011;52977;44.816;20.538;2023-07-13T06:01:05;21.00;;;9.93;;
66175;SDS011;52977;44.816;20.538;2023-07-13T06:03:34;17.58;;;8.93;;
66175;SDS011;52977;44.816;20.538;2023-07-13T06:06:00;15.52;;;8.18;;
66175;SDS011;52977;44.816;20.538;2023-07-13T06:08:27;15.65;;;8.18;;
66175;SDS011;52977;44.816;20.538;2023-07-13T06:10:53;13.98;;;6.90;;
66175;SDS011;52977;44.816;20.538;2023-07-13T06:13:19;13.07;;;7.47;;
66175;SDS011;52977;44.816;20.538;2023-07-13T06:15:49;14.95;;;7.30;;
66175;SDS011;52977;44.816;20.538;2023-07-13T06:18:15;12.10;;;5.80;;
66175;SDS011;52977;44.816;20.538;2023-07-13T06:20:41;13.02;;;6.18;;
66175;SDS011;52977;44.816;20.538;2023-07-13T06:23:08;12.00;;;6.35;;
66175;SDS011;52977;44.816;20.538;2023-07-13T06:25:34;11.68;;;6.05;;
66175;SDS011;52977;44.816;20.538;2023-07-13T06:28:00;11.73;;;5.93;;
66175;SDS011;52977;44.816;20.538;2023-07-13T06:30:26;10.23;;;6.07;;
66175;SDS011;52977;44.816;20.538;2023-07-13T06:32:52;9.55;;;5.53;;
66175;SDS011;52977;44.816;20.538;2023-07-13T06:35:18;17.92;;;7.68;;
66175;SDS011;52977;44.816;20.538;2023-07-13T06:37:44;17.10;;;9.63;;
66175;SDS011;52977;44.816;20.538;2023-07-13T06:40:10;15.13;;;8.63;;
66175;SDS011;52977;44.816;20.538;2023-07-13T06:42:36;16.65;;;7.28;;
66175;SDS011;52977;44.816;20.538;2023-07-13T06:45:04;15.05;;;6.47;;
66175;SDS011;52977;44.816;20.538;2023-07-13T06:47:30;14.00;;;6.40;;
66175;SDS011;52977;44.816;20.538;2023-07-13T06:49:57;14.40;;;7.03;;
66175;SDS011;52977;44.816;20.538;2023-07-13T06:52:23;16.38;;;6.55;;
66175;SDS011;52977;44.816;20.538;2023-07-13T06:54:49;13.85;;;6.07;;
66175;SDS011;52977;44.816;20.538;2023-07-13T06:57:15;12.48;;;6.05;;
66175;SDS011;52977;44.816;20.538;2023-07-13T06:59:41;16.50;;;7.20;;
66175;SDS011;52977;44.816;20.538;2023-07-13T07:02:09;17.33;;;7.45;;
66175;SDS011;52977;44.816;20.538;2023-07-13T07:04:35;14.60;;;6.75;;
66175;SDS011;52977;44.816;20.538;2023-07-13T07:07:01;16.42;;;8.68;;
66175;SDS011;52977;44.816;20.538;2023-07-13T07:09:27;16.95;;;8.18;;
66175;SDS011;52977;44.816;20.538;2023-07-13T07:11:55;20.00;;;8.00;;
66175;SDS011;52977;44.816;20.538;2023-07-13T07:14:21;13.18;;;6.25;;
66175;SDS011;52977;44.816;20.538;2023-07-13T07:16:48;13.45;;;7.03;;
66175;SDS011;52977;44.816;20.538;2023-07-13T07:19:15;11.13;;;6.50;;
66175;SDS011;52977;44.816;20.538;2023-07-13T07:21:42;13.73;;;6.30;;
66175;SDS011;52977;44.816;20.538;2023-07-13T07:24:08;12.07;;;6.10;;
66175;SDS011;52977;44.816;20.538;2023-07-13T07:26:34;11.93;;;6.15;;
66175;SDS011;52977;44.816;20.538;2023-07-13T07:29:00;13.02;;;5.60;;
66175;SDS011;52977;44.816;20.538;2023-07-13T07:31:25;15.35;;;5.30;;
66175;SDS011;52977;44.816;20.538;2023-07-13T07:33:51;13.85;;;5.80;;
66175;SDS011;52977;44.816;20.538;2023-07-13T07:36:16;14.50;;;5.47;;
66175;SDS011;52977;44.816;20.538;2023-07-13T07:38:42;12.48;;;5.53;;
66175;SDS011;52977;44.816;20.538;2023-07-13T07:41:09;12.00;;;5.15;;
66175;SDS011;52977;44.816;20.538;2023-07-13T07:43:36;12.90;;;5.95;;
66175;SDS011;52977;44.816;20.538;2023-07-13T07:46:02;13.07;;;6.22;;
66175;SDS011;52977;44.816;20.538;2023-07-13T07:48:28;11.60;;;5.00;;
66175;SDS011;52977;44.816;20.538;2023-07-13T07:50:55;9.15;;;5.03;;
66175;SDS011;52977;44.816;20.538;2023-07-13T07:53:21;13.75;;;5.90;;
66175;SDS011;52977;44.816;20.538;2023-07-13T07:55:48;10.75;;;5.88;;
66175;SDS011;52977;44.816;20.538;2023-07-13T07:58:14;10.68;;;5.95;;
66175;SDS011;52977;44.816;20.538;2023-07-13T08:00:40;12.60;;;5.32;;
66175;SDS011;52977;44.816;20.538;2023-07-13T08:03:06;11.05;;;6.07;;
66175;SDS011;52977;44.816;20.538;2023-07-13T08:05:31;13.98;;;5.80;;
66175;SDS011;52977;44.816;20.538;2023-07-13T08:07:57;16.73;;;6.68;;
66175;SDS011;52977;44.816;20.538;2023-07-13T08:10:23;17.15;;;6.30;;
66175;SDS011;52977;44.816;20.538;2023-07-13T08:12:49;11.30;;;5.78;;
66175;SDS011;52977;44.816;20.538;2023-07-13T08:15:16;14.98;;;6.10;;
66175;SDS011;52977;44.816;20.538;2023-07-13T08:17:43;11.95;;;5.97;;
66175;SDS011;52977;44.816;20.538;2023-07-13T08:20:10;16.70;;;5.63;;
66175;SDS011;52977;44.816;20.538;2023-07-13T08:22:36;12.27;;;5.95;;
66175;SDS011;52977;44.816;20.538;2023-07-13T08:25:03;11.20;;;5.97;;
66175;SDS011;52977;44.816;20.538;2023-07-13T08:27:29;11.18;;;6.03;;
66175;SDS011;52977;44.816;20.538;2023-07-13T08:29:55;10.05;;;6.20;;
66175;SDS011;52977;44.816;20.538;2023-07-13T08:32:22;11.40;;;6.13;;
66175;SDS011;52977;44.816;20.538;2023-07-13T08:34:48;13.25;;;6.32;;
66175;SDS011;52977;44.816;20.538;2023-07-13T08:37:15;11.70;;;6.40;;
66175;SDS011;52977;44.816;20.538;2023-07-13T08:39:42;13.95;;;6.68;;
66175;SDS011;52977;44.816;20.538;2023-07-13T08:42:18;15.25;;;6.88;;
66175;SDS011;52977;44.816;20.538;2023-07-13T08:45:17;13.65;;;6.40;;
66175;SDS011;52977;44.816;20.538;2023-07-13T08:47:52;14.68;;;7.38;;
66175;SDS011;52977;44.816;20.538;2023-07-13T08:50:23;14.10;;;6.80;;
66175;SDS011;52977;44.816;20.538;2023-07-13T08:52:53;14.35;;;7.18;;
66175;SDS011;52977;44.816;20.538;2023-07-13T08:55:23;14.23;;;7.25;;
66175;SDS011;52977;44.816;20.538;2023-07-13T08:57:56;17.50;;;8.45;;
66175;SDS011;52977;44.816;20.538;2023-07-13T09:00:33;15.43;;;7.63;;
66175;SDS011;52977;44.816;20.538;2023-07-13T09:03:07;14.57;;;7.70;;
66175;SDS011;52977;44.816;20.538;2023-07-13T09:05:41;13.02;;;7.80;;
66175;SDS011;52977;44.816;20.538;2023-07-13T09:10:53;15.30;;;8.15;;
66175;SDS011;52977;44.816;20.538;2023-07-13T09:13:54;13.85;;;7.88;;
66175;SDS011;52977;44.816;20.538;2023-07-13T09:16:18;16.55;;;7.88;;
66175;SDS011;52977;44.816;20.538;2023-07-13T09:18:53;13.23;;;8.23;;
66175;SDS011;52977;44.816;20.538;2023-07-13T09:21:23;16.83;;;8.07;;
66175;SDS011;52977;44.816;20.538;2023-07-13T09:23:59;13.80;;;8.15;;
66175;SDS011;52977;44.816;20.538;2023-07-13T09:26:46;14.20;;;8.50;;
66175;SDS011;52977;44.816;20.538;2023-07-13T09:29:29;17.08;;;8.40;;
66175;SDS011;52977;44.816;20.538;2023-07-13T09:32:04;17.38;;;8.90;;
66175;SDS011;52977;44.816;20.538;2023-07-13T09:34:36;13.73;;;8.02;;
66175;SDS011;52977;44.816;20.538;2023-07-13T09:37:02;18.63;;;8.70;;
66175;SDS011;52977;44.816;20.538;2023-07-13T09:39:33;14.40;;;8.40;;
66175;SDS011;52977;44.816;20.538;2023-07-13T09:44:38;15.35;;;8.57;;
66175;SDS011;52977;44.816;20.538;2023-07-13T09:47:26;14.57;;;8.35;;
66175;SDS011;52977;44.816;20.538;2023-07-13T09:52:25;15.23;;;8.70;;
66175;SDS011;52977;44.816;20.538;2023-07-13T09:54:53;13.43;;;8.32;;
66175;SDS011;52977;44.816;20.538;2023-07-13T09:57:25;12.63;;;7.65;;
66175;SDS011;52977;44.816;20.538;2023-07-13T09:59:54;13.52;;;8.27;;
66175;SDS011;52977;44.816;20.538;2023-07-13T10:02:23;15.23;;;8.80;;
66175;SDS011;52977;44.816;20.538;2023-07-13T10:04:59;10.85;;;7.95;;
66175;SDS011;52977;44.816;20.538;2023-07-13T10:07:30;18.33;;;8.88;;
66175;SDS011;52977;44.816;20.538;2023-07-13T10:09:58;13.07;;;8.25;;
66175;SDS011;52977;44.816;20.538;2023-07-13T10:12:29;15.32;;;8.18;;
66175;SDS011;52977;44.816;20.538;2023-07-13T10:15:01;14.05;;;7.90;;
66175;SDS011;52977;44.816;20.538;2023-07-13T10:17:30;13.45;;;7.95;;
66175;SDS011;52977;44.816;20.538;2023-07-13T10:20:01;16.58;;;8.15;;
66175;SDS011;52977;44.816;20.538;2023-07-13T10:25:18;14.93;;;8.23;;
66175;SDS011;52977;44.816;20.538;2023-07-13T10:27:49;16.60;;;8.38;;
66175;SDS011;52977;44.816;20.538;2023-07-13T10:30:24;17.27;;;9.35;;
66175;SDS011;52977;44.816;20.538;2023-07-13T10:32:57;16.15;;;8.60;;
66175;SDS011;52977;44.816;20.538;2023-07-13T10:35:26;14.38;;;8.50;;
66175;SDS011;52977;44.816;20.538;2023-07-13T10:38:00;14.75;;;8.05;;
66175;SDS011;52977;44.816;20.538;2023-07-13T10:40:33;17.45;;;8.20;;
66175;SDS011;52977;44.816;20.538;2023-07-13T10:43:04;20.75;;;9.10;;
66175;SDS011;52977;44.816;20.538;2023-07-13T10:45:37;20.25;;;8.52;;
66175;SDS011;52977;44.816;20.538;2023-07-13T10:48:02;13.38;;;7.90;;
66175;SDS011;52977;44.816;20.538;2023-07-13T10:50:30;20.27;;;9.07;;
66175;SDS011;52977;44.816;20.538;2023-07-13T10:53:30;12.27;;;8.07;;
66175;SDS011;52977;44.816;20.538;2023-07-13T10:56:02;17.73;;;8.23;;
66175;SDS011;52977;44.816;20.538;2023-07-13T10:58:44;16.50;;;9.10;;
66175;SDS011;52977;44.816;20.538;2023-07-13T11:01:13;14.35;;;8.23;;
66175;SDS011;52977;44.816;20.538;2023-07-13T11:06:29;18.42;;;9.02;;
66175;SDS011;52977;44.816;20.538;2023-07-13T11:09:17;16.60;;;8.43;;
66175;SDS011;52977;44.816;20.538;2023-07-13T11:11:45;15.48;;;8.13;;
66175;SDS011;52977;44.816;20.538;2023-07-13T11:16:53;15.65;;;8.23;;
66175;SDS011;52977;44.816;20.538;2023-07-13T11:24:29;16.55;;;7.75;;
66175;SDS011;52977;44.816;20.538;2023-07-13T11:30:18;15.77;;;8.50;;
66175;SDS011;52977;44.816;20.538;2023-07-13T11:33:13;18.95;;;8.27;;
66175;SDS011;52977;44.816;20.538;2023-07-13T11:35:51;13.33;;;7.93;;
66175;SDS011;52977;44.816;20.538;2023-07-13T11:38:32;13.52;;;8.00;;
66175;SDS011;52977;44.816;20.538;2023-07-13T11:41:00;13.10;;;8.07;;
66175;SDS011;52977;44.816;20.538;2023-07-13T11:43:29;14.68;;;7.88;;
66175;SDS011;52977;44.816;20.538;2023-07-13T11:45:55;13.88;;;7.50;;
66175;SDS011;52977;44.816;20.538;2023-07-13T11:48:23;13.57;;;7.80;;
66175;SDS011;52977;44.816;20.538;2023-07-13T11:50:51;14.55;;;7.28;;
66175;SDS011;52977;44.816;20.538;2023-07-13T11:53:21;14.90;;;7.72;;
66175;SDS011;52977;44.816;20.538;2023-07-13T11:55:48;14.30;;;8.18;;
66175;SDS011;52977;44.816;20.538;2023-07-13T11:58:16;17.20;;;8.20;;
66175;SDS011;52977;44.816;20.538;2023-07-13T12:00:46;12.90;;;8.20;;
66175;SDS011;52977;44.816;20.538;2023-07-13T12:03:13;13.77;;;8.13;;
66175;SDS011;52977;44.816;20.538;2023-07-13T12:08:49;12.65;;;7.38;;
66175;SDS011;52977;44.816;20.538;2023-07-13T12:11:16;20.40;;;8.20;;
66175;SDS011;52977;44.816;20.538;2023-07-13T12:13:43;16.67;;;8.20;;
66175;SDS011;52977;44.816;20.538;2023-07-13T12:16:14;13.88;;;7.25;;
66175;SDS011;52977;44.816;20.538;2023-07-13T12:18:47;13.85;;;7.90;;
66175;SDS011;52977;44.816;20.538;2023-07-13T12:21:14;18.60;;;8.10;;
66175;SDS011;52977;44.816;20.538;2023-07-13T12:23:43;13.43;;;8.13;;
66175;SDS011;52977;44.816;20.538;2023-07-13T12:26:12;15.65;;;7.53;;
66175;SDS011;52977;44.816;20.538;2023-07-13T12:28:39;14.93;;;8.05;;
66175;SDS011;52977;44.816;20.538;2023-07-13T12:33:57;13.63;;;8.30;;
66175;SDS011;52977;44.816;20.538;2023-07-13T12:36:34;10.70;;;7.53;;
66175;SDS011;52977;44.816;20.538;2023-07-13T12:39:11;15.75;;;8.13;;
66175;SDS011;52977;44.816;20.538;2023-07-13T12:41:39;15.13;;;8.32;;
66175;SDS011;52977;44.816;20.538;2023-07-13T12:44:09;12.32;;;7.43;;
66175;SDS011;52977;44.816;20.538;2023-07-13T12:46:37;21.15;;;8.95;;
66175;SDS011;52977;44.816;20.538;2023-07-13T12:49:04;12.52;;;8.00;;
66175;SDS011;52977;44.816;20.538;2023-07-13T12:54:06;14.15;;;7.65;;
66175;SDS011;52977;44.816;20.538;2023-07-13T12:56:38;14.20;;;7.60;;
66175;SDS011;52977;44.816;20.538;2023-07-13T12:59:05;10.18;;;7.20;;
66175;SDS011;52977;44.816;20.538;2023-07-13T13:01:32;13.27;;;7.38;;
66175;SDS011;52977;44.816;20.538;2023-07-13T13:04:03;11.50;;;7.43;;
66175;SDS011;52977;44.816;20.538;2023-07-13T13:06:49;20.27;;;7.57;;
66175;SDS011;52977;44.816;20.538;2023-07-13T13:09:27;16.02;;;9.20;;
66175;SDS011;52977;44.816;20.538;2023-07-13T13:11:53;13.82;;;8.20;;
66175;SDS011;52977;44.816;20.538;2023-07-13T13:14:19;13.88;;;7.30;;
66175;SDS011;52977;44.816;20.538;2023-07-13T13:16:46;13.98;;;7.70;;
66175;SDS011;52977;44.816;20.538;2023-07-13T13:19:24;19.25;;;8.10;;
66175;SDS011;52977;44.816;20.538;2023-07-13T13:21:53;14.75;;;8.52;;
66175;SDS011;52977;44.816;20.538;2023-07-13T13:24:23;13.52;;;7.97;;
66175;SDS011;52977;44.816;20.538;2023-07-13T13:26:51;17.00;;;8.18;;
66175;SDS011;52977;44.816;20.538;2023-07-13T13:29:20;14.18;;;9.70;;
66175;SDS011;52977;44.816;20.538;2023-07-13T13:31:49;15.05;;;7.35;;
66175;SDS011;52977;44.816;20.538;2023-07-13T13:34:17;15.63;;;9.60;;
66175;SDS011;52977;44.816;20.538;2023-07-13T13:36:44;12.68;;;7.88;;
66175;SDS011;52977;44.816;20.538;2023-07-13T13:39:22;15.27;;;7.93;;
66175;SDS011;52977;44.816;20.538;2023-07-13T13:41:51;16.63;;;7.85;;
66175;SDS011;52977;44.816;20.538;2023-07-13T13:44:18;16.02;;;9.60;;
66175;SDS011;52977;44.816;20.538;2023-07-13T13:46:46;18.17;;;9.88;;
66175;SDS011;52977;44.816;20.538;2023-07-13T13:49:14;11.85;;;7.30;;
66175;SDS011;52977;44.816;20.538;2023-07-13T13:51:46;11.02;;;6.50;;
66175;SDS011;52977;44.816;20.538;2023-07-13T13:54:13;13.68;;;7.13;;
66175;SDS011;52977;44.816;20.538;2023-07-13T13:56:42;11.25;;;5.95;;
66175;SDS011;52977;44.816;20.538;2023-07-13T13:59:09;12.38;;;6.57;;
66175;SDS011;52977;44.816;20.538;2023-07-13T14:01:36;12.30;;;6.53;;
66175;SDS011;52977;44.816;20.538;2023-07-13T14:04:04;12.48;;;6.07;;
66175;SDS011;52977;44.816;20.538;2023-07-13T14:06:31;15.50;;;7.72;;
66175;SDS011;52977;44.816;20.538;2023-07-13T14:08:57;14.05;;;7.53;;
66175;SDS011;52977;44.816;20.538;2023-07-13T14:11:22;25.17;;;7.00;;
66175;SDS011;52977;44.816;20.538;2023-07-13T14:13:55;14.00;;;7.03;;
66175;SDS011;52977;44.816;20.538;2023-07-13T14:16:25;15.18;;;6.82;;
66175;SDS011;52977;44.816;20.538;2023-07-13T14:18:55;19.63;;;6.35;;
66175;SDS011;52977;44.816;20.538;2023-07-13T14:21:23;13.88;;;6.07;;
66175;SDS011;52977;44.816;20.538;2023-07-13T14:23:49;13.93;;;6.35;;
66175;SDS011;52977;44.816;20.538;2023-07-13T14:28:45;17.98;;;9.55;;
66175;SDS011;52977;44.816;20.538;2023-07-13T14:31:13;25.30;;;12.05;;
66175;SDS011;52977;44.816;20.538;2023-07-13T14:33:39;17.88;;;8.40;;
66175;SDS011;52977;44.816;20.538;2023-07-13T14:36:13;16.25;;;7.20;;
66175;SDS011;52977;44.816;20.538;2023-07-13T14:38:48;17.13;;;6.22;;
66175;SDS011;52977;44.816;20.538;2023-07-13T14:41:14;15.43;;;6.35;;
66175;SDS011;52977;44.816;20.538;2023-07-13T14:43:39;11.13;;;5.90;;
66175;SDS011;52977;44.816;20.538;2023-07-13T14:46:07;10.98;;;6.25;;
66175;SDS011;52977;44.816;20.538;2023-07-13T14:48:42;13.15;;;5.93;;
66175;SDS011;52977;44.816;20.538;2023-07-13T14:51:09;15.32;;;6.07;;
66175;SDS011;52977;44.816;20.538;2023-07-13T14:53:36;13.75;;;5.47;;
66175;SDS011;52977;44.816;20.538;2023-07-13T14:56:13;15.77;;;5.75;;
66175;SDS011;52977;44.816;20.538;2023-07-13T14:58:40;19.98;;;7.28;;
66175;SDS011;52977;44.816;20.538;2023-07-13T15:01:09;14.05;;;7.22;;
66175;SDS011;52977;44.816;20.538;2023-07-13T15:03:44;10.77;;;5.75;;
66175;SDS011;52977;44.816;20.538;2023-07-13T15:06:11;14.40;;;5.28;;
66175;SDS011;52977;44.816;20.538;2023-07-13T15:08:38;11.65;;;5.78;;
66175;SDS011;52977;44.816;20.538;2023-07-13T15:11:06;16.88;;;5.95;;
66175;SDS011;52977;44.816;20.538;2023-07-13T15:13:32;12.43;;;5.57;;